Merrimack River @ Franklin Jct, Nh

Merrimack River at Franklin Junction
 Total Drainage Area: 1,507 sq. miles 
 Drainage Area Controlled by Corps Dams: 1,000 sq. miles (66%) 
 Warning Flow/Stage: 15,900 cfs / 13.0 feet 
 Flood Flow/Stage: 18,100 cfs / 14.0 feet 
Date Time
(Eastern)
Stage
(ft)
Flow
(cfs)
CSM
(cfs / sq. mi.)
Jun-16 07:30 pm 4.79 1,395 .9
Jun-16 06:30 pm 4.79 1,395 .9
Jun-16 05:30 pm 4.80 1,405 .9
Jun-16 04:30 pm 4.80 1,405 .9
Jun-16 03:30 pm 4.80 1,405 .9
Jun-16 02:30 pm 4.80 1,405 .9
Jun-16 01:30 pm 4.80 1,405 .9
Jun-16 12:30 pm 4.80 1,405 .9
Jun-16 11:30 am 4.80 1,405 .9
Jun-16 10:30 am 4.80 1,405 .9
Jun-16 09:30 am 4.83 1,434 1.0
Jun-16 08:30 am 4.74 1,346 .9
Jun-16 07:30 am 4.79 1,395 .9
Jun-16 06:30 am 4.79 1,395 .9
Jun-16 05:30 am 4.79 1,395 .9
Jun-16 04:30 am 4.79 1,395 .9
Jun-16 03:30 am 4.79 1,395 .9
Jun-16 02:30 am 4.79 1,395 .9
Jun-16 01:30 am 4.78 1,385 .9
Jun-16 12:30 am 4.78 1,385 .9
Jun-15 11:30 pm 4.78 1,385 .9
Jun-15 10:30 pm 4.78 1,385 .9
Jun-15 09:30 pm 4.78 1,385 .9
Jun-15 08:30 pm 4.77 1,375 .9
Jun-15 07:30 pm 4.77 1,375 .9
Report Generated June 16, 2024 08:23 pm